Time;durP1;ratioP1;P1;durP2;ratioP2;P2;SDS_P1;SDS_P2;PMS_P1;PMS_P2;Temp;Humidity;BMP_temperature;BMP_pressure;BME280_temperature;BME280_humidity;BME280_pressure;Samples;Min_cycle;Max_cycle;Signal;HPM_P1;HPM_P2
2021/03/05 00:00:22;;;;;;;11.77;8.10;;;;;;;7.80;94.55;96193.81;5037657;28;20512;-86
2021/03/05 00:02:48;;;;;;;15.37;9.70;;;;;;;7.87;93.96;96197.81;5037340;28;20451;-86
2021/03/05 00:05:15;;;;;;;15.70;10.10;;;;;;;7.81;94.41;96197.25;5036982;28;20994;-86
2021/03/05 00:07:41;;;;;;;14.30;10.10;;;;;;;7.71;95.37;96201.63;5038871;28;20936;-86
2021/03/05 00:10:09;;;;;;;19.20;9.30;;;;;;;7.80;94.78;96209.25;5040496;28;20538;-87
2021/03/05 00:12:36;;;;;;;16.60;10.97;;;;;;;7.72;94.43;96217.22;5040020;28;20920;-86
2021/03/05 00:15:04;;;;;;;17.33;12.70;;;;;;;7.49;94.18;96222.38;5040369;28;20445;-88
2021/03/05 00:17:30;;;;;;;26.50;14.67;;;;;;;7.41;93.52;96220.88;5040516;28;20451;-85
2021/03/05 00:19:56;;;;;;;23.90;15.17;;;;;;;7.24;93.82;96225.88;5040682;28;20439;-86
2021/03/05 00:22:22;;;;;;;18.20;12.50;;;;;;;7.18;92.41;96223.31;5040659;28;20850;-85
2021/03/05 00:24:48;;;;;;;16.67;11.47;;;;;;;6.80;91.74;96238.22;5040132;28;20984;-85
2021/03/05 00:27:14;;;;;;;19.73;12.73;;;;;;;6.66;91.67;96232.16;5039942;28;20439;-86
2021/03/05 00:29:40;;;;;;;23.50;14.87;;;;;;;6.41;93.21;96236.28;5039570;28;20806;-86
2021/03/05 00:32:08;;;;;;;22.70;15.90;;;;;;;6.35;93.42;96233.00;5040084;28;20466;-86
2021/03/05 00:34:34;;;;;;;28.60;16.73;;;;;;;6.18;92.79;96230.59;5039770;28;20493;-85
2021/03/05 00:37:00;;;;;;;32.10;18.20;;;;;;;6.03;93.07;96230.38;5039402;28;20431;-86
2021/03/05 00:39:27;;;;;;;28.43;18.13;;;;;;;5.90;93.39;96231.06;5039567;28;20447;-86
2021/03/05 00:41:53;;;;;;;28.03;17.73;;;;;;;5.98;92.94;96227.78;5039180;28;20480;-86
2021/03/05 00:44:20;;;;;;;32.07;20.37;;;;;;;5.87;93.91;96242.06;5039531;28;20471;-85
2021/03/05 00:46:47;;;;;;;33.37;19.80;;;;;;;5.84;93.31;96238.44;5039539;28;20458;-85
2021/03/05 00:49:13;;;;;;;34.17;20.93;;;;;;;5.72;94.04;96239.13;5039804;28;20431;-85
2021/03/05 00:51:40;;;;;;;35.60;22.23;;;;;;;5.73;94.25;96246.63;5038645;28;20791;-86
2021/03/05 00:54:07;;;;;;;40.43;23.13;;;;;;;5.64;94.79;96238.28;5038888;28;20483;-85
2021/03/05 00:56:33;;;;;;;36.03;20.67;;;;;;;5.68;94.95;96254.75;5038672;28;20431;-86
2021/03/05 00:58:59;;;;;;;37.07;22.40;;;;;;;5.68;95.38;96252.06;5039717;28;20462;-85
2021/03/05 01:01:25;;;;;;;36.23;21.70;;;;;;;5.69;95.26;96245.50;5039328;28;20983;-86
2021/03/05 01:03:51;;;;;;;39.40;22.33;;;;;;;5.54;95.36;96251.31;5038939;28;20971;-87
2021/03/05 01:06:18;;;;;;;36.50;21.17;;;;;;;5.28;97.24;96235.13;5039142;28;20529;-87
2021/03/05 01:08:44;;;;;;;40.77;23.63;;;;;;;5.09;98.14;96253.13;5038800;28;20534;-87
2021/03/05 01:11:10;;;;;;;42.47;23.63;;;;;;;5.06;98.79;96248.78;5039544;28;20439;-85
2021/03/05 01:13:36;;;;;;;41.30;23.07;;;;;;;5.06;98.75;96260.22;5038584;28;20538;-86
2021/03/05 01:16:02;;;;;;;43.17;24.27;;;;;;;5.00;98.54;96254.22;5038827;28;20444;-85
2021/03/05 01:18:28;;;;;;;43.70;24.10;;;;;;;4.92;98.29;96258.69;5038977;28;20535;-86
2021/03/05 01:20:54;;;;;;;53.57;27.97;;;;;;;4.86;98.78;96258.03;5038549;28;20445;-86
2021/03/05 01:23:21;;;;;;;44.73;25.20;;;;;;;4.81;98.44;96266.84;5038663;28;20462;-85
2021/03/05 01:25:48;;;;;;;46.83;26.50;;;;;;;4.75;99.33;96269.56;5039046;28;20449;-86
2021/03/05 01:28:14;;;;;;;44.07;24.93;;;;;;;4.70;98.66;96274.97;5018701;28;20471;-88
2021/03/05 01:30:40;;;;;;;44.80;24.70;;;;;;;4.57;99.33;96283.63;5018343;28;20547;-85
2021/03/05 01:33:06;;;;;;;44.03;25.60;;;;;;;4.62;99.67;96271.41;5018686;28;20538;-86
2021/03/05 01:35:32;;;;;;;45.93;25.80;;;;;;;4.46;99.96;96277.66;5019212;28;20437;-85
2021/03/05 01:37:59;;;;;;;53.47;26.93;;;;;;;4.36;99.51;96277.25;5018482;28;20460;-85
2021/03/05 01:40:40;;;;;;;49.77;26.93;;;;;;;4.30;100.00;96290.66;5018644;28;20967;-85
2021/03/05 01:43:07;;;;;;;56.30;26.33;;;;;;;4.17;100.00;96282.53;5018676;28;20466;-87
2021/03/05 01:45:34;;;;;;;50.43;26.60;;;;;;;4.14;100.00;96280.84;5019350;28;20506;-87
2021/03/05 01:48:05;;;;;;;55.30;28.60;;;;;;;4.19;100.00;96279.38;5019167;28;20439;-87
2021/03/05 01:50:38;;;;;;;60.53;28.70;;;;;;;4.30;100.00;96285.31;5018742;28;20505;-87
2021/03/05 01:53:06;;;;;;;53.40;26.20;;;;;;;4.24;99.95;96284.66;5018954;28;20578;-88
2021/03/05 01:55:32;;;;;;;45.03;24.13;;;;;;;4.09;99.87;96289.63;5026138;28;20420;-87
2021/03/05 02:01:11;;;;;;;45.60;24.70;;;;;;;4.06;100.00;96284.56;5039860;28;20397;-88
2021/03/05 02:03:37;;;;;;;46.23;23.90;;;;;;;3.94;100.00;96275.19;5025159;28;20882;-86
2021/03/05 02:06:05;;;;;;;48.17;23.57;;;;;;;3.72;100.00;96270.75;5018283;28;20455;-85
2021/03/05 02:08:31;;;;;;;48.57;25.60;;;;;;;3.70;100.00;96275.84;5018440;28;20459;-87
2021/03/05 02:10:58;;;;;;;53.20;28.73;;;;;;;3.67;100.00;96284.84;5031077;28;20424;-88
2021/03/05 02:13:24;;;;;;;54.37;25.80;;;;;;;3.65;100.00;96282.69;5039334;28;20456;-86
2021/03/05 02:15:52;;;;;;;58.30;29.33;;;;;;;3.67;100.00;96282.91;5039449;28;20436;-86
2021/03/05 02:18:28;;;;;;;65.93;29.20;;;;;;;3.75;100.00;96280.44;5039374;28;20439;-86
2021/03/05 02:21:10;;;;;;;69.63;29.83;;;;;;;3.72;100.00;96273.44;5035358;28;20444;-86
2021/03/05 02:23:48;;;;;;;58.07;29.90;;;;;;;3.70;100.00;96276.56;5018286;28;20455;-85
2021/03/05 02:26:56;;;;;;;71.70;30.73;;;;;;;3.77;100.00;96280.66;5018472;28;20424;-85
2021/03/05 02:30:10;;;;;;;53.20;26.80;;;;;;;3.60;100.00;96288.06;5017689;28;20452;-86
2021/03/05 02:32:43;;;;;;;56.83;26.97;;;;;;;3.59;100.00;96298.00;4957685;28;20493;-86
2021/03/05 02:35:11;;;;;;;64.47;29.30;;;;;;;3.60;100.00;96296.78;5013255;28;20448;-85
2021/03/05 02:37:41;;;;;;;59.97;28.33;;;;;;;3.51;100.00;96291.03;5018164;28;20463;-86
2021/03/05 02:40:11;;;;;;;61.23;27.90;;;;;;;3.47;100.00;96306.56;5018531;28;20500;-86
2021/03/05 02:42:45;;;;;;;60.20;27.77;;;;;;;3.52;100.00;96298.53;5018480;28;20516;-85
2021/03/05 02:45:16;;;;;;;53.33;25.97;;;;;;;3.37;100.00;96306.13;5018241;28;20456;-86
2021/03/05 02:47:45;;;;;;;55.23;25.60;;;;;;;3.39;100.00;96305.63;5018358;28;20480;-85
2021/03/05 02:50:14;;;;;;;65.80;29.07;;;;;;;3.38;100.00;96306.84;5018150;28;20432;-86
2021/03/05 02:52:43;;;;;;;63.50;28.10;;;;;;;3.50;100.00;96305.56;5018486;28;20464;-87
2021/03/05 02:55:11;;;;;;;58.97;28.03;;;;;;;3.53;100.00;96304.59;5018028;28;20432;-86
2021/03/05 02:57:44;;;;;;;55.40;27.33;;;;;;;3.45;100.00;96304.38;5018022;28;20501;-86
2021/03/05 03:00:12;;;;;;;54.80;25.30;;;;;;;3.36;100.00;96303.94;5018751;28;20420;-87
2021/03/05 03:02:39;;;;;;;48.90;25.10;;;;;;;3.36;100.00;96311.94;5018549;28;20433;-87
2021/03/05 03:05:09;;;;;;;58.60;27.40;;;;;;;3.41;100.00;96319.22;5017325;28;20476;-87
2021/03/05 03:07:38;;;;;;;54.50;26.10;;;;;;;3.44;100.00;96324.28;5017625;28;20513;-88
2021/03/05 03:10:05;;;;;;;55.70;25.97;;;;;;;3.42;100.00;96328.63;5017511;28;20901;-87
2021/03/05 03:12:34;;;;;;;53.63;27.57;;;;;;;3.45;100.00;96324.97;5017766;28;20455;-88
2021/03/05 03:15:01;;;;;;;59.00;25.23;;;;;;;3.52;100.00;96316.47;5017788;28;21067;-88
2021/03/05 03:17:29;;;;;;;51.43;26.63;;;;;;;3.48;100.00;96318.66;5017942;28;20505;-87
2021/03/05 03:19:55;;;;;;;43.23;23.83;;;;;;;3.50;100.00;96332.25;5017685;28;20455;-88
2021/03/05 03:22:24;;;;;;;52.80;27.97;;;;;;;3.20;100.00;96329.47;5018153;28;20443;-87
2021/03/05 03:24:51;;;;;;;49.93;25.60;;;;;;;3.31;100.00;96336.69;5018716;28;20495;-85
2021/03/05 03:27:17;;;;;;;55.50;24.07;;;;;;;3.32;100.00;96344.19;5017695;28;20456;-85
2021/03/05 03:29:43;;;;;;;58.77;26.40;;;;;;;3.33;100.00;96337.66;5017753;28;20480;-86
2021/03/05 03:32:10;;;;;;;49.77;24.47;;;;;;;3.36;100.00;96350.00;5016835;28;20448;-85
2021/03/05 03:34:38;;;;;;;44.00;23.90;;;;;;;3.37;100.00;96338.13;5017235;28;20515;-85
2021/03/05 03:37:04;;;;;;;50.43;24.37;;;;;;;3.39;100.00;96345.63;5016830;28;20441;-85
2021/03/05 03:39:31;;;;;;;49.37;22.80;;;;;;;3.40;100.00;96345.13;5017175;28;20851;-85
2021/03/05 03:41:59;;;;;;;47.50;23.60;;;;;;;3.41;100.00;96343.22;5019147;28;20436;-85
2021/03/05 03:44:25;;;;;;;46.33;23.00;;;;;;;3.50;100.00;96342.91;5020957;28;20551;-86
2021/03/05 03:46:52;;;;;;;48.47;25.63;;;;;;;3.41;100.00;96348.53;5021410;28;20917;-85
2021/03/05 03:49:24;;;;;;;45.53;22.60;;;;;;;3.41;100.00;96343.22;5021359;28;20475;-84
2021/03/05 03:51:54;;;;;;;51.57;24.00;;;;;;;3.30;100.00;96356.56;5021670;28;20425;-85
2021/03/05 03:54:21;;;;;;;51.37;25.67;;;;;;;3.35;100.00;96350.50;5021530;28;20484;-86
2021/03/05 03:56:52;;;;;;;53.20;24.10;;;;;;;3.29;100.00;96347.13;5021196;28;20463;-86
2021/03/05 03:59:19;;;;;;;47.67;23.40;;;;;;;3.24;100.00;96357.31;5021022;28;20782;-85
2021/03/05 04:01:48;;;;;;;42.13;23.20;;;;;;;3.36;100.00;96362.59;5021240;28;20444;-85
2021/03/05 04:04:16;;;;;;;48.50;23.10;;;;;;;3.33;100.00;96355.59;5020739;28;20525;-86
2021/03/05 04:06:44;;;;;;;46.73;23.60;;;;;;;3.34;100.00;96354.38;5021326;28;20805;-86
2021/03/05 04:09:11;;;;;;;47.80;24.90;;;;;;;3.24;100.00;96346.66;5021311;28;20837;-86
2021/03/05 04:11:39;;;;;;;41.03;21.40;;;;;;;3.22;100.00;96354.44;5021395;28;20450;-86
2021/03/05 04:14:06;;;;;;;41.30;21.33;;;;;;;3.16;100.00;96347.69;5021209;28;20518;-86
2021/03/05 04:16:33;;;;;;;36.17;20.23;;;;;;;3.15;100.00;96356.88;5021269;28;20436;-86
2021/03/05 04:18:59;;;;;;;42.90;23.27;;;;;;;3.12;100.00;96358.59;5021472;28;20417;-86
2021/03/05 04:21:28;;;;;;;38.47;20.70;;;;;;;3.25;100.00;96358.06;5021476;28;20439;-86
2021/03/05 04:23:54;;;;;;;37.70;19.00;;;;;;;3.18;100.00;96369.22;5021440;28;20464;-85
2021/03/05 04:26:20;;;;;;;36.57;19.33;;;;;;;3.11;100.00;96365.13;5021694;28;20451;-86
2021/03/05 04:28:46;;;;;;;33.97;19.57;;;;;;;3.17;100.00;96376.50;5021399;28;20436;-85
2021/03/05 04:31:13;;;;;;;32.60;19.23;;;;;;;3.09;100.00;96369.50;5039689;28;20534;-86
2021/03/05 04:33:39;;;;;;;34.67;19.23;;;;;;;3.06;100.00;96365.88;5040430;28;20493;-86
2021/03/05 04:36:06;;;;;;;34.33;20.27;;;;;;;3.11;100.00;96377.72;5040820;28;20581;-85
2021/03/05 04:38:33;;;;;;;31.07;17.27;;;;;;;3.12;100.00;96371.91;5040922;28;20802;-86
2021/03/05 04:40:59;;;;;;;30.43;17.13;;;;;;;3.21;100.00;96373.56;5040238;28;20442;-85
2021/03/05 04:43:25;;;;;;;33.30;18.90;;;;;;;3.21;100.00;96381.56;5039982;28;20459;-85
2021/03/05 04:45:51;;;;;;;31.67;18.83;;;;;;;3.21;100.00;96379.63;5039850;28;20936;-85
2021/03/05 04:48:18;;;;;;;30.57;16.60;;;;;;;3.10;100.00;96377.00;5039799;28;20432;-85
2021/03/05 04:50:44;;;;;;;29.47;17.70;;;;;;;3.22;100.00;96383.03;5040133;28;20449;-85
2021/03/05 04:53:10;;;;;;;30.47;17.77;;;;;;;3.16;100.00;96383.03;5039941;28;20557;-85
2021/03/05 04:55:37;;;;;;;32.53;18.57;;;;;;;3.21;100.00;96392.97;5040837;28;20531;-85
2021/03/05 04:58:03;;;;;;;31.80;17.20;;;;;;;3.11;100.00;96393.72;5039548;28;20553;-84
2021/03/05 05:00:30;;;;;;;33.27;18.20;;;;;;;3.17;100.00;96395.16;5040526;28;20535;-85
2021/03/05 05:02:56;;;;;;;32.33;17.30;;;;;;;3.02;100.00;96391.31;5040249;28;20463;-85
2021/03/05 05:05:23;;;;;;;36.67;19.67;;;;;;;3.13;100.00;96393.97;5039722;28;20492;-84
2021/03/05 05:07:49;;;;;;;28.03;17.20;;;;;;;3.18;100.00;96391.28;5039571;28;20447;-85
2021/03/05 05:10:16;;;;;;;31.60;17.03;;;;;;;3.13;100.00;96388.63;5039003;28;20434;-84
2021/03/05 05:12:43;;;;;;;31.63;17.80;;;;;;;3.13;100.00;96384.00;5053888;28;20427;-87
2021/03/05 05:15:10;;;;;;;31.07;18.47;;;;;;;3.11;100.00;96404.38;5059475;28;20514;-87
2021/03/05 05:17:36;;;;;;;32.97;18.37;;;;;;;3.14;100.00;96401.47;5059459;28;20447;-84
2021/03/05 05:20:02;;;;;;;31.10;17.40;;;;;;;3.07;100.00;96401.97;5056280;28;21026;-86
2021/03/05 05:22:31;;;;;;;31.00;18.03;;;;;;;3.03;100.00;96408.75;5039080;28;20503;-87
2021/03/05 05:24:57;;;;;;;32.03;18.57;;;;;;;3.07;100.00;96409.94;5038405;28;21018;-86
2021/03/05 05:27:23;;;;;;;30.63;16.53;;;;;;;3.19;100.00;96411.41;5039056;28;20457;-85
2021/03/05 05:29:49;;;;;;;33.50;17.30;;;;;;;3.28;100.00;96413.06;5038402;28;20447;-85
2021/03/05 05:32:15;;;;;;;27.00;15.33;;;;;;;3.13;100.00;96420.63;5038218;28;20470;-86
2021/03/05 05:34:41;;;;;;;28.83;15.60;;;;;;;2.95;100.00;96413.84;5038514;28;20564;-85
2021/03/05 05:37:07;;;;;;;28.57;15.17;;;;;;;3.03;100.00;96425.50;5038900;28;20518;-86
2021/03/05 05:39:34;;;;;;;26.47;14.97;;;;;;;3.03;100.00;96416.75;5039389;28;20472;-85
2021/03/05 05:42:06;;;;;;;24.63;14.67;;;;;;;3.22;100.00;96425.69;5038514;28;20449;-84
2021/03/05 05:44:32;;;;;;;23.40;13.37;;;;;;;3.25;100.00;96430.03;5039213;28;20455;-85
2021/03/05 05:47:00;;;;;;;35.03;18.63;;;;;;;3.08;100.00;96429.34;5038994;28;20460;-86
2021/03/05 05:49:27;;;;;;;31.10;15.83;;;;;;;3.01;100.00;96425.22;5038548;28;20480;-85
2021/03/05 05:51:58;;;;;;;32.33;16.73;;;;;;;3.20;100.00;96431.50;5038180;28;20443;-86
2021/03/05 05:54:24;;;;;;;32.67;16.70;;;;;;;3.21;100.00;96434.88;5038645;28;20852;-86
2021/03/05 05:56:52;;;;;;;28.20;15.90;;;;;;;3.02;100.00;96432.03;5039565;28;20436;-86
2021/03/05 05:59:19;;;;;;;32.87;17.30;;;;;;;2.95;100.00;96435.19;5039299;28;20514;-85
2021/03/05 06:01:46;;;;;;;28.13;16.07;;;;;;;3.07;100.00;96431.28;5040203;28;20431;-87
2021/03/05 06:04:15;;;;;;;27.10;15.07;;;;;;;3.07;100.00;96441.94;5038563;28;20516;-87
2021/03/05 06:06:41;;;;;;;27.17;14.03;;;;;;;3.08;100.00;96437.34;5039720;28;20510;-87
2021/03/05 06:09:07;;;;;;;26.47;14.00;;;;;;;2.93;100.00;96453.59;5017914;28;639597;-87
2021/03/05 06:11:35;;;;;;;28.10;15.03;;;;;;;2.89;100.00;96449.72;5039982;28;20438;-88
2021/03/05 06:14:03;;;;;;;20.80;12.33;;;;;;;2.88;100.00;96453.59;5040118;28;20514;-87
2021/03/05 06:16:29;;;;;;;25.90;14.93;;;;;;;2.89;100.00;96452.38;5041007;28;20461;-87
2021/03/05 06:18:55;;;;;;;27.20;14.60;;;;;;;2.94;100.00;96460.38;5040436;28;20530;-87
2021/03/05 06:21:38;;;;;;;25.43;14.57;;;;;;;2.86;100.00;96454.09;5041550;28;20444;-87
2021/03/05 06:24:07;;;;;;;26.77;14.07;;;;;;;2.97;100.00;96467.41;5045482;28;21030;-87
2021/03/05 06:26:47;;;;;;;26.77;16.10;;;;;;;2.77;100.00;96472.97;5040576;28;20436;-87
2021/03/05 06:29:15;;;;;;;25.57;14.83;;;;;;;2.80;100.00;96472.00;5040159;28;20514;-88
2021/03/05 06:31:41;;;;;;;29.87;15.43;;;;;;;2.89;100.00;96476.34;5040206;28;20453;-88
2021/03/05 06:34:07;;;;;;;31.13;16.53;;;;;;;2.78;100.00;96482.44;5040769;28;20491;-87
2021/03/05 06:36:34;;;;;;;26.00;13.43;;;;;;;2.81;100.00;96478.06;5042044;28;20497;-87
2021/03/05 06:39:00;;;;;;;33.73;14.77;;;;;;;2.81;100.00;96481.47;5040653;28;20451;-87
2021/03/05 06:41:28;;;;;;;25.13;13.63;;;;;;;2.91;100.00;96497.94;5040497;28;20455;-87
2021/03/05 06:43:55;;;;;;;38.30;15.70;;;;;;;2.99;100.00;96493.56;5040589;28;20601;-87
2021/03/05 06:46:31;;;;;;;24.57;13.33;;;;;;;2.85;100.00;96505.19;5041428;28;20450;-86
2021/03/05 06:48:58;;;;;;;29.80;15.70;;;;;;;2.83;100.00;96505.69;5041317;28;20465;-87
2021/03/05 06:51:25;;;;;;;31.17;13.33;;;;;;;2.79;100.00;96509.81;5049811;28;20428;-86
2021/03/05 06:54:02;;;;;;;29.93;16.50;;;;;;;2.82;100.00;96506.88;5052338;28;20491;-86
2021/03/05 06:56:29;;;;;;;34.87;16.70;;;;;;;2.82;100.00;96517.53;5050138;28;20438;-87
2021/03/05 06:59:03;;;;;;;28.47;13.93;;;;;;;2.91;100.00;96512.00;5041262;28;20435;-89
2021/03/05 07:01:31;;;;;;;25.87;13.13;;;;;;;2.85;100.00;96521.19;5043675;28;20506;-89
2021/03/05 07:04:05;;;;;;;26.87;14.43;;;;;;;2.86;100.00;96523.34;5049906;28;20466;-93
2021/03/05 07:06:32;;;;;;;25.03;13.07;;;;;;;2.90;100.00;96518.53;5051844;28;20454;-93
2021/03/05 07:08:59;;;;;;;23.63;12.13;;;;;;;2.92;100.00;96529.41;5047993;28;20454;-93
2021/03/05 07:11:38;;;;;;;32.00;14.90;;;;;;;2.90;100.00;96529.19;5041075;28;20481;-92
2021/03/05 07:14:07;;;;;;;31.67;15.73;;;;;;;2.83;100.00;96528.91;5044151;28;20934;-92
2021/03/05 07:16:43;;;;;;;31.90;14.03;;;;;;;2.78;100.00;96534.97;5041284;28;20443;-91
2021/03/05 07:19:10;;;;;;;26.40;13.23;;;;;;;2.67;100.00;96539.09;5043241;28;20482;-92
2021/03/05 07:21:43;;;;;;;27.80;13.67;;;;;;;2.83;100.00;96534.25;5041491;28;20471;-89
2021/03/05 07:24:12;;;;;;;31.40;15.00;;;;;;;2.90;100.00;96539.84;5042396;28;20501;-89
2021/03/05 07:26:53;;;;;;;26.60;15.03;;;;;;;2.70;100.00;96548.78;5042991;28;20485;-91
2021/03/05 07:29:21;;;;;;;27.83;13.20;;;;;;;2.66;100.00;96547.56;5042699;28;20506;-91
2021/03/05 07:31:57;;;;;;;31.83;15.00;;;;;;;2.85;100.00;96561.16;5043179;28;20477;-91
2021/03/05 07:34:25;;;;;;;35.20;14.23;;;;;;;2.85;100.00;96559.19;5041721;28;20489;-89
2021/03/05 07:36:56;;;;;;;32.03;14.47;;;;;;;3.00;100.00;96569.63;5042967;28;20451;-93
2021/03/05 07:39:25;;;;;;;28.20;14.40;;;;;;;3.11;100.00;96566.97;5043016;28;20432;-92
2021/03/05 07:41:54;;;;;;;36.53;15.90;;;;;;;3.02;100.00;96569.88;5042304;28;20439;-89
2021/03/05 07:44:21;;;;;;;28.83;14.37;;;;;;;3.09;100.00;96583.47;5045797;28;20462;-91
2021/03/05 07:46:48;;;;;;;27.17;13.27;;;;;;;3.12;100.00;96584.41;5054559;28;20441;-95
2021/03/05 07:49:16;;;;;;;27.70;13.73;;;;;;;2.99;100.00;96574.25;5054138;28;20529;-93
2021/03/05 07:51:44;;;;;;;31.23;16.10;;;;;;;3.01;100.00;96579.06;5046498;28;20543;-92
2021/03/05 07:54:10;;;;;;;26.83;14.80;;;;;;;2.91;100.00;96575.22;5042726;28;20479;-91
2021/03/05 07:56:45;;;;;;;31.20;14.50;;;;;;;2.88;100.00;96587.53;5042337;28;20431;-90
2021/03/05 07:59:12;;;;;;;31.53;14.90;;;;;;;3.03;100.00;96580.06;5041721;28;20442;-90
2021/03/05 08:01:55;;;;;;;33.43;15.27;;;;;;;3.07;100.00;96593.84;5041323;28;20451;-90
2021/03/05 08:04:22;;;;;;;40.83;16.83;;;;;;;3.07;100.00;96591.19;5040395;28;20498;-92
2021/03/05 08:07:09;;;;;;;37.77;15.73;;;;;;;3.10;100.00;96598.22;5039194;28;20860;-90
2021/03/05 08:09:37;;;;;;;33.23;18.37;;;;;;;3.13;100.00;96604.53;5042775;28;20538;-90
2021/03/05 08:12:37;;;;;;;36.70;16.50;;;;;;;3.16;100.00;96601.63;5041469;28;20462;-90
2021/03/05 08:15:25;;;;;;;35.47;15.53;;;;;;;3.29;100.00;96600.44;5040472;28;20513;-89
2021/03/05 08:17:54;;;;;;;36.00;16.90;;;;;;;3.13;100.00;96613.25;5040280;28;20823;-89
2021/03/05 08:20:50;;;;;;;33.03;15.03;;;;;;;2.99;100.00;96614.22;5055268;28;20443;-88
2021/03/05 08:23:17;;;;;;;29.17;15.13;;;;;;;3.00;100.00;96620.28;5057303;28;20443;-91
2021/03/05 08:25:54;;;;;;;27.93;14.80;;;;;;;3.10;100.00;96618.84;5057356;28;20459;-89
2021/03/05 08:28:43;;;;;;;29.77;14.37;;;;;;;3.14;100.00;96619.31;5058946;28;20485;-92
2021/03/05 08:31:38;;;;;;;32.63;15.60;;;;;;;3.19;100.00;96616.66;5061062;28;20451;-91
2021/03/05 08:34:32;;;;;;;33.17;15.07;;;;;;;3.19;100.00;96623.94;5049611;28;20479;-91
2021/03/05 08:36:59;;;;;;;33.97;16.23;;;;;;;3.14;100.00;96622.72;5044648;28;20423;-91
2021/03/05 08:39:30;;;;;;;36.77;15.77;;;;;;;3.19;100.00;96624.66;5047257;28;20506;-91
2021/03/05 08:42:32;;;;;;;33.57;15.10;;;;;;;3.24;100.00;96629.25;5048085;28;20804;-91
2021/03/05 08:45:15;;;;;;;30.00;13.77;;;;;;;3.23;100.00;96630.47;5046576;28;20455;-92
2021/03/05 08:47:42;;;;;;;27.97;14.20;;;;;;;3.34;100.00;96639.69;5045386;28;20419;-90
2021/03/05 08:50:11;;;;;;;27.90;15.07;;;;;;;3.22;100.00;96630.97;5045151;28;20448;-91
2021/03/05 08:52:40;;;;;;;32.50;14.13;;;;;;;3.32;100.00;96642.13;5045343;28;20467;-91
2021/03/05 08:55:07;;;;;;;32.63;13.90;;;;;;;3.36;100.00;96635.31;5027579;28;20486;-92
2021/03/05 08:57:44;;;;;;;26.33;13.83;;;;;;;3.43;100.00;96639.44;5026547;28;20439;-91
2021/03/05 09:00:14;;;;;;;27.07;12.70;;;;;;;3.36;100.00;96643.31;5023783;28;20506;-91
2021/03/05 09:02:41;;;;;;;31.20;15.37;;;;;;;3.47;100.00;96645.28;5025517;28;20521;-91
2021/03/05 09:05:09;;;;;;;32.83;15.30;;;;;;;3.48;99.37;96646.72;5025384;28;20490;-90
2021/03/05 09:07:50;;;;;;;36.57;14.53;;;;;;;3.40;99.48;96649.16;5024577;28;20436;-90
2021/03/05 09:10:17;;;;;;;34.07;14.50;;;;;;;3.34;99.46;96653.75;5035281;28;20439;-90
2021/03/05 09:12:54;;;;;;;26.13;13.47;;;;;;;3.40;98.67;96653.75;5050037;28;20456;-91
2021/03/05 09:15:23;;;;;;;23.90;13.30;;;;;;;3.33;97.23;96648.88;5048112;28;20538;-92
2021/03/05 09:17:49;;;;;;;29.20;13.90;;;;;;;3.55;96.73;96654.22;5043500;28;20431;-91
2021/03/05 09:20:17;;;;;;;23.57;11.50;;;;;;;3.39;97.68;96650.34;5046538;28;20451;-92
2021/03/05 09:22:43;;;;;;;28.50;13.17;;;;;;;3.46;97.95;96649.13;5045865;28;20443;-90
2021/03/05 09:25:10;;;;;;;32.17;15.20;;;;;;;3.31;98.35;96656.66;5043948;28;20435;-89
2021/03/05 09:27:39;;;;;;;27.67;14.23;;;;;;;3.38;97.20;96664.91;5044262;28;20949;-91
2021/03/05 09:30:15;;;;;;;29.43;15.20;;;;;;;3.34;97.02;96666.34;5044584;28;20447;-92
2021/03/05 09:32:51;;;;;;;31.50;14.77;;;;;;;3.37;97.99;96665.38;5025346;28;20440;-90
2021/03/05 09:35:24;;;;;;;33.60;14.50;;;;;;;3.44;98.06;96670.25;5025048;28;20491;-90
2021/03/05 09:37:51;;;;;;;30.97;15.33;;;;;;;3.35;97.72;96663.22;5023795;28;20500;-90
2021/03/05 09:40:18;;;;;;;29.27;13.50;;;;;;;3.35;97.67;96667.81;5021909;28;20451;-88
2021/03/05 09:42:50;;;;;;;21.03;12.60;;;;;;;3.43;96.77;96671.44;5022598;28;20439;-88
2021/03/05 09:45:34;;;;;;;26.27;12.90;;;;;;;3.44;96.93;96673.63;5021861;28;20455;-91
2021/03/05 09:48:02;;;;;;;24.90;12.83;;;;;;;3.56;96.98;96672.44;5031191;28;20455;-91
2021/03/05 09:50:29;;;;;;;22.77;11.53;;;;;;;3.53;97.27;96676.06;5045359;28;20474;-91
2021/03/05 09:52:57;;;;;;;26.23;14.30;;;;;;;3.66;95.68;96678.25;5042875;28;20501;-91
2021/03/05 09:55:24;;;;;;;26.07;13.00;;;;;;;3.65;95.42;96684.78;5042417;28;20467;-88
2021/03/05 09:57:52;;;;;;;25.10;13.10;;;;;;;3.49;93.74;96683.56;5042346;28;20462;-89
2021/03/05 10:00:29;;;;;;;24.10;12.97;;;;;;;3.55;94.86;96688.91;5041927;28;20436;-89
2021/03/05 10:03:03;;;;;;;30.00;12.40;;;;;;;3.66;95.19;96692.31;5043290;28;20514;-89
2021/03/05 10:05:30;;;;;;;26.87;12.47;;;;;;;3.80;93.65;96693.28;5045522;28;20951;-91
2021/03/05 10:07:56;;;;;;;32.07;13.33;;;;;;;3.88;93.24;96696.91;5052157;28;20431;-90
2021/03/05 10:10:22;;;;;;;25.30;13.53;;;;;;;3.80;92.63;96690.59;5042946;28;20431;-90
2021/03/05 10:12:52;;;;;;;22.03;12.20;;;;;;;3.90;93.23;96689.16;5042428;28;20443;-91
2021/03/05 10:15:19;;;;;;;24.10;12.70;;;;;;;3.82;92.59;96701.53;5041653;28;20855;-89
2021/03/05 10:17:45;;;;;;;23.60;12.10;;;;;;;3.91;93.54;96703.97;5042357;28;20482;-92
2021/03/05 10:20:12;;;;;;;23.73;11.70;;;;;;;3.96;92.05;96702.47;5041427;28;20439;-91
2021/03/05 10:22:39;;;;;;;24.30;13.57;;;;;;;3.82;92.12;96703.47;5040544;28;20478;-88
2021/03/05 10:25:08;;;;;;;23.97;13.40;;;;;;;4.12;92.26;96705.13;5040767;28;20455;-85
2021/03/05 10:27:41;;;;;;;27.00;12.93;;;;;;;4.12;91.19;96710.47;5040882;28;20454;-87
2021/03/05 10:30:08;;;;;;;24.60;12.97;;;;;;;3.98;89.57;96710.75;5040054;28;20432;-86
2021/03/05 10:32:37;;;;;;;27.70;12.57;;;;;;;4.03;90.50;96715.34;5040707;28;20964;-86
2021/03/05 10:35:06;;;;;;;24.60;12.93;;;;;;;4.12;91.25;96718.50;5039387;28;21002;-89
2021/03/05 10:37:33;;;;;;;21.67;12.03;;;;;;;4.30;90.45;96715.28;5041183;28;20552;-86
2021/03/05 10:40:02;;;;;;;21.63;11.83;;;;;;;4.35;89.07;96718.44;5040274;28;20436;-86
2021/03/05 10:42:29;;;;;;;20.70;11.30;;;;;;;4.11;87.37;96725.03;5039493;28;20848;-89
2021/03/05 10:44:56;;;;;;;20.47;11.60;;;;;;;4.14;87.70;96731.34;5038689;28;20478;-87
2021/03/05 10:47:23;;;;;;;28.00;14.43;;;;;;;4.10;87.42;96731.59;5040464;28;20854;-86
2021/03/05 10:49:50;;;;;;;25.70;10.47;;;;;;;4.11;89.18;96730.38;5045524;28;20459;-85
2021/03/05 10:52:19;;;;;;;24.00;14.00;;;;;;;4.14;90.18;96736.69;5042111;28;20435;-89
2021/03/05 10:54:46;;;;;;;31.03;13.03;;;;;;;4.16;90.17;96743.00;5041574;28;20558;-91
2021/03/05 10:57:14;;;;;;;22.20;11.77;;;;;;;4.22;89.07;96741.06;5041653;28;20428;-90
2021/03/05 10:59:41;;;;;;;19.43;10.10;;;;;;;4.42;89.30;96742.00;5043786;28;20432;-90
2021/03/05 11:02:07;;;;;;;24.20;12.40;;;;;;;4.51;88.46;96733.72;5041442;28;20538;-90
2021/03/05 11:04:34;;;;;;;25.33;11.47;;;;;;;4.32;87.82;96736.88;5042252;28;20478;-89
2021/03/05 11:07:01;;;;;;;18.60;11.73;;;;;;;4.39;87.44;96742.94;5042135;28;20466;-92
2021/03/05 11:09:28;;;;;;;23.57;12.00;;;;;;;4.20;86.82;96750.75;5044691;28;20443;-88
2021/03/05 11:11:55;;;;;;;26.33;11.30;;;;;;;4.36;88.07;96751.94;5040104;28;20912;-90
2021/03/05 11:14:22;;;;;;;24.43;12.60;;;;;;;4.54;87.39;96748.78;5040997;28;20479;-87
2021/03/05 11:16:49;;;;;;;20.63;12.27;;;;;;;4.60;86.91;96754.81;5045810;28;20420;-88
2021/03/05 11:19:16;;;;;;;26.30;12.87;;;;;;;4.68;86.05;96753.81;5057196;28;20439;-89
2021/03/05 11:21:42;;;;;;;23.67;11.50;;;;;;;4.46;85.10;96748.53;5057758;28;20502;-87
2021/03/05 11:24:10;;;;;;;19.50;11.20;;;;;;;4.49;85.86;96752.16;5057141;28;20451;-90
2021/03/05 11:26:36;;;;;;;26.20;13.60;;;;;;;4.66;84.13;96755.53;5045528;28;20537;-87
2021/03/05 11:29:03;;;;;;;24.37;12.27;;;;;;;4.71;84.75;96752.09;5039329;28;20462;-87
2021/03/05 11:31:30;;;;;;;19.23;11.00;;;;;;;4.66;84.54;96763.56;5041592;28;20491;-86